Time;durP1;ratioP1;P1;durP2;ratioP2;P2;SDS_P1;SDS_P2;PMS_P1;PMS_P2;Temp;Humidity;BMP_temperature;BMP_pressure;BME280_temperature;BME280_humidity;BME280_pressure;Samples;Min_cycle;Max_cycle;Signal;HPM_P1;HPM_P2
2021/06/24 00:01:51;;;;;;;;;;;;;;;23.00;58.99;100695.84;5098493;27;19915;-71
2021/06/24 00:04:36;;;;;;;;;;;;;;;22.95;59.42;100699.03;5101760;27;19920;-70
2021/06/24 00:07:21;;;;;;;;;;;;;;;22.88;59.58;100687.13;5096003;27;19923;-70
2021/06/24 00:10:06;;;;;;;;;;;;;;;23.28;58.62;100697.72;5104088;27;19916;-72
2021/06/24 00:12:50;;;;;;;;;;;;;;;23.57;57.67;100698.41;5108989;27;19923;-73
2021/06/24 00:15:36;;;;;;;;;;;;;;;23.33;58.15;100699.28;5112520;27;19920;-71
2021/06/24 00:18:21;;;;;;;;;;;;;;;23.24;58.94;100691.41;5109249;28;19916;-70
2021/06/24 00:21:06;;;;;;;;;;;;;;;23.26;58.39;100691.78;5113735;27;19923;-71
2021/06/24 00:23:51;;;;;;;;;;;;;;;23.29;58.50;100692.97;5093653;28;19928;-71
2021/06/24 00:26:35;;;;;;;;;;;;;;;23.22;58.61;100688.22;5114132;27;20293;-70
2021/06/24 00:29:20;;;;;;;;;;;;;;;23.15;58.81;100685.50;5108755;27;19916;-70
2021/06/24 00:32:05;;;;;;;;;;;;;;;23.14;58.65;100678.34;5107825;28;19923;-72
2021/06/24 00:34:50;;;;;;;;;;;;;;;22.98;59.17;100678.78;5109425;27;19916;-71
2021/06/24 00:37:35;;;;;;;;;;;;;;;22.77;60.05;100670.50;5109548;27;19915;-70
2021/06/24 00:40:20;;;;;;;;;;;;;;;22.61;61.10;100681.19;5109558;28;19916;-70
2021/06/24 00:43:06;;;;;;;;;;;;;;;22.83;60.19;100676.44;5089835;27;19923;-70
2021/06/24 00:45:51;;;;;;;;;;;;;;;22.66;61.21;100672.47;5105675;27;19916;-70
2021/06/24 00:48:36;;;;;;;;;;;;;;;22.78;60.52;100680.44;5098383;27;21609;-71
2021/06/24 00:51:21;;;;;;;;;;;;;;;22.95;59.71;100667.72;5100064;27;19916;-71
2021/06/24 00:54:06;;;;;;;;;;;;;;;22.78;60.66;100666.56;5111660;27;19916;-71
2021/06/24 00:56:51;;;;;;;;;;;;;;;22.96;59.67;100660.97;5098913;28;19920;-71
2021/06/24 00:59:36;;;;;;;;;;;;;;;23.38;58.58;100669.13;5115691;28;19916;-70
2021/06/24 01:02:23;;;;;;;;;;;;;;;23.52;57.82;100667.53;5096596;28;19919;-72
2021/06/24 01:05:08;;;;;;;;;;;;;;;23.62;57.69;100666.69;5106505;27;21690;-73
2021/06/24 01:07:53;;;;;;;;;;;;;;;23.77;57.21;100657.09;5100272;27;20583;-72
2021/06/24 01:10:42;;;;;;;;;;;;;;;23.79;56.98;100665.78;5104076;27;19916;-70
2021/06/24 01:13:28;;;;;;;;;;;;;;;23.72;57.09;100663.06;5097039;27;19919;-73
2021/06/24 01:16:13;;;;;;;;;;;;;;;23.47;57.95;100665.19;5111119;27;19920;-72
2021/06/24 01:18:58;;;;;;;;;;;;;;;23.28;58.65;100669.97;5099481;28;19916;-74
2021/06/24 01:21:43;;;;;;;;;;;;;;;23.02;59.39;100657.38;5095237;28;19916;-72
2021/06/24 01:24:28;;;;;;;;;;;;;;;22.71;60.51;100651.91;5098899;27;19927;-74
2021/06/24 01:27:13;;;;;;;;;;;;;;;22.48;61.16;100652.31;5109164;27;19916;-71
2021/06/24 01:29:57;;;;;;;;;;;;;;;22.42;61.71;100651.13;5105006;27;20310;-71
2021/06/24 01:32:42;;;;;;;;;;;;;;;22.34;62.06;100655.09;5103294;28;19916;-73
2021/06/24 01:35:28;;;;;;;;;;;;;;;22.41;61.77;100649.53;5108278;27;19924;-73
2021/06/24 01:38:13;;;;;;;;;;;;;;;22.26;62.36;100650.72;5090744;28;19916;-72
2021/06/24 01:41:14;;;;;;;;;;;;;;;22.31;62.20;100650.34;5089187;28;19916;-72
2021/06/24 01:44:00;;;;;;;;;;;;;;;22.20;62.53;100647.56;5091574;28;19924;-71
2021/06/24 01:46:44;;;;;;;;;;;;;;;22.14;62.36;100643.63;5090428;27;19916;-70
2021/06/24 01:49:30;;;;;;;;;;;;;;;22.08;62.51;100643.22;5100294;27;19916;-71
2021/06/24 01:52:15;;;;;;;;;;;;;;;22.10;62.93;100645.59;5089860;27;19920;-71
2021/06/24 01:55:31;;;;;;;;;;;;;;;21.98;63.20;100646.78;5106127;27;19912;-71
2021/06/24 01:58:27;;;;;;;;;;;;;;;22.12;62.53;100646.78;5098438;27;19924;-72
2021/06/24 02:01:30;;;;;;;;;;;;;;;22.08;63.08;100643.22;5096400;27;19923;-72
2021/06/24 02:04:28;;;;;;;;;;;;;;;22.09;62.82;100639.28;5103195;27;19920;-72
2021/06/24 02:07:13;;;;;;;;;;;;;;;21.93;63.07;100626.97;5101951;27;19932;-72
2021/06/24 02:10:26;;;;;;;;;;;;;;;21.52;64.55;100640.31;5103891;27;19923;-72
2021/06/24 02:13:14;;;;;;;;;;;;;;;21.64;64.20;100631.63;5108159;27;19916;-71
2021/06/24 02:16:00;;;;;;;;;;;;;;;21.83;63.40;100630.50;5102421;27;19924;-72
2021/06/24 02:18:45;;;;;;;;;;;;;;;21.57;64.49;100623.34;5107459;27;19916;-72
2021/06/24 02:21:37;;;;;;;;;;;;;;;21.74;63.65;100628.91;5127829;27;19916;-72
2021/06/24 02:24:25;;;;;;;;;;;;;;;21.62;63.74;100625.72;5107803;27;19920;-71
2021/06/24 02:27:10;;;;;;;;;;;;;;;21.72;63.68;100630.50;5125262;27;19915;-71
2021/06/24 02:30:24;;;;;;;;;;;;;;;21.93;63.13;100626.97;5068524;27;19924;-71
2021/06/24 02:33:11;;;;;;;;;;;;;;;22.05;62.56;100624.63;5103396;27;19920;-71
2021/06/24 02:36:01;;;;;;;;;;;;;;;22.12;62.28;100627.41;5119453;27;20307;-72
2021/06/24 02:38:54;;;;;;;;;;;;;;;22.05;62.70;100621.84;5088236;28;19923;-72
2021/06/24 02:41:38;;;;;;;;;;;;;;;21.73;63.66;100626.53;5098313;28;20387;-72
2021/06/24 02:44:26;;;;;;;;;;;;;;;21.67;63.95;100628.09;5086310;28;21427;-71
2021/06/24 02:47:11;;;;;;;;;;;;;;;21.70;63.78;100627.31;5096995;28;19916;-71
2021/06/24 02:49:56;;;;;;;;;;;;;;;21.81;63.29;100632.88;5101436;27;20291;-71
2021/06/24 02:52:41;;;;;;;;;;;;;;;21.76;63.55;100631.28;5099909;28;19916;-71
2021/06/24 02:55:32;;;;;;;;;;;;;;;21.68;63.69;100635.22;5137182;27;19915;-71
2021/06/24 02:58:17;;;;;;;;;;;;;;;21.65;63.63;100634.03;5123692;27;19920;-71
2021/06/24 03:01:18;;;;;;;;;;;;;;;21.52;64.31;100632.03;5130238;27;19916;-72
2021/06/24 03:04:22;;;;;;;;;;;;;;;21.56;64.36;100635.59;5115398;27;19920;-71
2021/06/24 03:07:07;;;;;;;;;;;;;;;21.62;63.37;100637.59;5103330;27;19916;-72
2021/06/24 03:10:01;;;;;;;;;;;;;;;21.53;64.10;100633.63;5080192;28;19916;-73
2021/06/24 03:12:50;;;;;;;;;;;;;;;21.47;64.32;100637.94;5113301;27;20406;-70
2021/06/24 03:15:37;;;;;;;;;;;;;;;21.44;64.53;100638.69;5119707;27;20290;-72
2021/06/24 03:18:23;;;;;;;;;;;;;;;21.51;63.56;100635.97;5128595;27;19916;-71
2021/06/24 03:21:08;;;;;;;;;;;;;;;21.55;63.67;100642.31;5125428;27;19915;-72
2021/06/24 03:23:52;;;;;;;;;;;;;;;21.64;63.48;100640.75;5129480;27;19919;-73
2021/06/24 03:26:38;;;;;;;;;;;;;;;21.64;63.45;100649.03;5099161;27;20322;-73
2021/06/24 03:29:27;;;;;;;;;;;;;;;21.62;63.24;100645.09;5103585;27;19916;-71
2021/06/24 03:32:12;;;;;;;;;;;;;;;21.69;63.59;100645.09;5102580;28;19930;-71
2021/06/24 03:34:57;;;;;;;;;;;;;;;21.71;63.30;100645.50;5102724;27;19916;-71
2021/06/24 03:37:45;;;;;;;;;;;;;;;21.38;64.14;100651.34;5100311;28;19916;-72
2021/06/24 03:40:32;;;;;;;;;;;;;;;21.23;64.78;100640.22;5126545;27;19915;-73
2021/06/24 03:43:21;;;;;;;;;;;;;;;21.08;65.18;100638.53;5102273;28;19916;-72
2021/06/24 03:46:07;;;;;;;;;;;;;;;21.00;65.53;100642.47;5098549;28;19916;-72
2021/06/24 03:48:55;;;;;;;;;;;;;;;21.15;64.93;100646.09;5099268;28;19917;-72
2021/06/24 03:51:41;;;;;;;;;;;;;;;21.66;63.48;100648.66;5079603;28;19916;-72
2021/06/24 03:54:26;;;;;;;;;;;;;;;21.87;62.18;100654.25;5107329;27;19916;-72
2021/06/24 03:57:10;;;;;;;;;;;;;;;21.86;62.09;100663.72;5117047;28;19919;-72
2021/06/24 04:00:07;;;;;;;;;;;;;;;21.71;62.58;100654.59;5091462;28;19916;-73
2021/06/24 04:03:03;;;;;;;;;;;;;;;21.69;62.79;100656.16;5112906;28;19916;-72
2021/06/24 04:05:59;;;;;;;;;;;;;;;21.88;61.83;100663.34;5104451;27;19920;-72
2021/06/24 04:08:44;;;;;;;;;;;;;;;21.94;61.77;100664.59;5077112;28;20315;-73
2021/06/24 04:11:35;;;;;;;;;;;;;;;22.04;61.49;100663.81;5100221;27;19916;-72
2021/06/24 04:14:40;;;;;;;;;;;;;;;22.06;61.76;100666.94;5085186;28;19920;-72
2021/06/24 04:17:41;;;;;;;;;;;;;;;22.27;60.93;100666.19;5107768;28;19919;-72
2021/06/24 04:20:26;;;;;;;;;;;;;;;22.16;60.72;100660.63;5096232;28;20356;-72
2021/06/24 04:23:13;;;;;;;;;;;;;;;22.15;61.13;100662.59;5103818;28;19915;-73
2021/06/24 04:26:07;;;;;;;;;;;;;;;22.23;60.77;100665.38;5119595;28;19920;-71
2021/06/24 04:28:51;;;;;;;;;;;;;;;22.44;60.37;100670.94;5098755;28;20283;-72
2021/06/24 04:31:36;;;;;;;;;;;;;;;22.27;60.79;100682.78;5098915;28;20296;-70
2021/06/24 04:34:24;;;;;;;;;;;;;;;22.12;61.68;100668.94;5083425;28;19916;-71
2021/06/24 04:37:21;;;;;;;;;;;;;;;22.51;60.63;100676.47;5086698;28;19916;-71
2021/06/24 04:40:07;;;;;;;;;;;;;;;22.42;60.82;100673.31;5118003;28;19916;-69
2021/06/24 04:43:03;;;;;;;;;;;;;;;22.55;60.69;100680.03;5098839;28;19916;-71
2021/06/24 04:45:50;;;;;;;;;;;;;;;22.50;60.84;100670.13;5083349;28;19932;-70
2021/06/24 04:48:37;;;;;;;;;;;;;;;22.72;59.96;100678.44;5092426;28;19920;-70
2021/06/24 04:51:47;;;;;;;;;;;;;;;22.85;59.38;100680.41;5098647;28;19916;-70
2021/06/24 04:54:55;;;;;;;;;;;;;;;22.98;59.43;100684.34;5091753;28;20375;-70
2021/06/24 04:57:40;;;;;;;;;;;;;;;23.10;58.58;100676.78;5097124;28;20387;-70
2021/06/24 05:00:43;;;;;;;;;;;;;;;23.21;58.82;100681.09;5134711;27;19916;-71
2021/06/24 05:04:03;;;;;;;;;;;;;;;23.51;57.40;100691.72;5137538;27;19919;-70
2021/06/24 05:06:52;;;;;;;;;;;;;;;23.61;57.02;100687.31;5142005;27;19915;-70
2021/06/24 05:09:40;;;;;;;;;;;;;;;23.65;56.50;100693.63;5143260;27;19915;-70
2021/06/24 05:12:24;;;;;;;;;;;;;;;23.67;55.46;100692.03;5126815;27;20295;-70
2021/06/24 05:15:09;;;;;;;;;;;;;;;23.53;58.14;100694.88;5122998;27;19915;-71
2021/06/24 05:17:53;;;;;;;;;;;;;;;23.54;57.94;100698.44;5104747;27;19916;-71
2021/06/24 05:20:39;;;;;;;;;;;;;;;23.87;56.30;100693.09;5129167;27;19919;-71
2021/06/24 05:23:23;;;;;;;;;;;;;;;24.12;55.03;100697.72;5113057;27;20291;-73
2021/06/24 05:26:08;;;;;;;;;;;;;;;24.18;56.31;100701.66;5122795;27;20367;-72
2021/06/24 05:28:52;;;;;;;;;;;;;;;24.04;56.50;100710.06;5107504;27;19917;-70
2021/06/24 05:31:39;;;;;;;;;;;;;;;24.12;56.78;100706.06;5117760;27;19920;-70
2021/06/24 05:34:23;;;;;;;;;;;;;;;24.14;57.09;100706.44;5111783;27;19915;-70
2021/06/24 05:37:08;;;;;;;;;;;;;;;24.05;57.08;100714.44;5130556;27;19916;-72
2021/06/24 05:39:52;;;;;;;;;;;;;;;23.88;57.46;100705.78;5124663;27;19916;-72
2021/06/24 05:42:37;;;;;;;;;;;;;;;24.23;56.17;100704.00;5103408;27;19915;-72
2021/06/24 05:45:27;;;;;;;;;;;;;;;24.64;55.03;100707.63;5131758;27;19919;-72
2021/06/24 05:48:11;;;;;;;;;;;;;;;24.80;54.85;100709.88;5131938;27;19915;-70
2021/06/24 05:50:56;;;;;;;;;;;;;;;25.23;53.87;100712.25;5122343;27;19915;-71
2021/06/24 05:53:40;;;;;;;;;;;;;;;25.67;52.24;100712.13;5133175;27;19920;-72
2021/06/24 05:56:24;;;;;;;;;;;;;;;26.08;51.31;100717.53;5112900;27;19924;-72
2021/06/24 05:59:09;;;;;;;;;;;;;;;25.96;51.32;100718.09;5106524;27;19937;-72
2021/06/24 06:01:54;;;;;;;;;;;;;;;25.80;51.09;100713.13;5120702;27;19920;-72
2021/06/24 06:04:38;;;;;;;;;;;;;;;25.58;50.43;100711.84;5115428;28;19920;-72
2021/06/24 06:07:23;;;;;;;;;;;;;;;25.92;50.35;100717.34;5119471;27;19916;-72
2021/06/24 06:10:08;;;;;;;;;;;;;;;26.16;50.87;100718.22;5112905;27;19916;-72
2021/06/24 06:12:52;;;;;;;;;;;;;;;26.20;49.97;100716.16;5101985;27;19916;-73
2021/06/24 06:15:41;;;;;;;;;;;;;;;26.44;50.64;100726.16;5122741;27;19920;-71
2021/06/24 06:18:26;;;;;;;;;;;;;;;26.72;49.63;100728.47;5119985;27;20383;-73
2021/06/24 06:21:11;;;;;;;;;;;;;;;26.74;49.06;100719.66;5109802;28;19915;-71
2021/06/24 06:23:57;;;;;;;;;;;;;;;26.74;48.51;100725.25;5126883;27;20383;-73
2021/06/24 06:26:43;;;;;;;;;;;;;;;26.76;48.69;100731.22;5126898;27;19915;-73
2021/06/24 06:29:27;;;;;;;;;;;;;;;26.93;49.05;100730.13;5124676;27;20294;-71
2021/06/24 06:32:11;;;;;;;;;;;;;;;27.01;48.43;100731.56;5100127;27;20371;-72
2021/06/24 06:34:56;;;;;;;;;;;;;;;26.96;48.85;100732.06;5096221;27;19915;-73
2021/06/24 06:37:40;;;;;;;;;;;;;;;27.04;48.69;100738.28;5120628;27;19920;-73
2021/06/24 06:40:24;;;;;;;;;;;;;;;26.96;48.81;100732.06;5126600;27;19924;-73
2021/06/24 06:43:09;;;;;;;;;;;;;;;26.79;48.71;100733.94;5125139;27;19915;-73
2021/06/24 06:45:54;;;;;;;;;;;;;;;26.93;48.77;100735.69;5125425;27;19920;-73
2021/06/24 06:48:40;;;;;;;;;;;;;;;26.69;48.76;100736.91;5122407;27;19916;-73
2021/06/24 06:51:25;;;;;;;;;;;;;;;26.83;48.61;100745.03;5125009;27;20310;-73
2021/06/24 06:54:09;;;;;;;;;;;;;;;26.77;48.97;100739.13;5129065;27;19916;-73
2021/06/24 06:56:54;;;;;;;;;;;;;;;26.79;48.83;100738.72;5123602;27;19915;-73
2021/06/24 06:59:40;;;;;;;;;;;;;;;26.81;49.27;100747.47;5108043;27;20310;-74
2021/06/24 07:02:25;;;;;;;;;;;;;;;26.91;48.62;100745.72;5129147;27;19923;-72
2021/06/24 07:05:09;;;;;;;;;;;;;;;27.00;48.22;100743.94;5127427;27;20287;-73
2021/06/24 07:07:54;;;;;;;;;;;;;;;27.10;48.06;100739.38;5121856;27;19994;-73
2021/06/24 07:10:38;;;;;;;;;;;;;;;27.14;47.75;100743.69;5127123;27;20379;-73
2021/06/24 07:13:23;;;;;;;;;;;;;;;27.24;47.67;100742.69;5126580;27;19915;-73
2021/06/24 07:16:08;;;;;;;;;;;;;;;27.17;47.50;100745.59;5125167;27;20367;-72
2021/06/24 07:18:52;;;;;;;;;;;;;;;27.12;47.43;100750.94;5113256;27;20294;-74
2021/06/24 07:21:36;;;;;;;;;;;;;;;27.18;47.54;100738.81;5120263;27;19915;-74
2021/06/24 07:24:21;;;;;;;;;;;;;;;27.35;47.21;100747.28;5124359;27;19919;-73
2021/06/24 07:27:06;;;;;;;;;;;;;;;27.35;47.11;100742.47;5123181;27;19915;-72
2021/06/24 07:29:50;;;;;;;;;;;;;;;27.45;46.88;100741.47;5122922;27;19920;-71
2021/06/24 07:32:35;;;;;;;;;;;;;;;27.47;46.59;100755.03;5122687;27;20384;-73
2021/06/24 07:35:19;;;;;;;;;;;;;;;27.54;46.45;100754.91;5121465;27;19916;-73
2021/06/24 07:38:04;;;;;;;;;;;;;;;27.58;46.09;100752.84;5124544;27;19916;-71
2021/06/24 07:40:48;;;;;;;;;;;;;;;27.57;46.17;100748.47;5126693;27;19916;-73
2021/06/24 07:43:32;;;;;;;;;;;;;;;27.65;46.11;100750.69;5120702;27;19916;-72
2021/06/24 07:46:17;;;;;;;;;;;;;;;27.73;45.79;100756.13;5125315;27;20387;-73
2021/06/24 07:49:01;;;;;;;;;;;;;;;27.74;45.77;100755.69;5109322;27;19916;-72
2021/06/24 07:51:46;;;;;;;;;;;;;;;27.83;45.59;100753.09;5108590;27;19916;-72
2021/06/24 07:54:31;;;;;;;;;;;;;;;27.91;45.55;100748.91;5123657;27;19916;-72
2021/06/24 07:57:15;;;;;;;;;;;;;;;27.86;45.43;100752.22;5119805;28;19915;-73
2021/06/24 08:00:00;;;;;;;;;;;;;;;27.88;45.69;100751.81;5122830;27;19920;-73
2021/06/24 08:02:44;;;;;;;;;;;;;;;27.91;45.22;100751.72;5122458;28;19916;-73
2021/06/24 08:05:35;;;;;;;;;;;;;;;28.00;45.42;100756.72;5122887;27;19920;-72
2021/06/24 08:08:19;;;;;;;;;;;;;;;27.98;44.90;100754.38;5114630;27;19916;-72
2021/06/24 08:11:04;;;;;;;;;;;;;;;28.12;44.93;100758.09;5123488;27;19916;-73
2021/06/24 08:13:48;;;;;;;;;;;;;;;28.15;44.36;100748.81;5122835;27;19919;-72
2021/06/24 08:16:33;;;;;;;;;;;;;;;28.13;44.58;100760.47;5116580;27;19916;-72
2021/06/24 08:19:18;;;;;;;;;;;;;;;28.15;44.26;100754.41;5124537;27;20299;-72
2021/06/24 08:22:03;;;;;;;;;;;;;;;28.13;44.68;100762.47;5125877;27;19916;-72
2021/06/24 08:24:48;;;;;;;;;;;;;;;28.16;44.28;100751.19;5109425;28;19920;-72
2021/06/24 08:27:34;;;;;;;;;;;;;;;28.18;44.23;100756.34;5117217;28;20306;-72
2021/06/24 08:30:20;;;;;;;;;;;;;;;28.07;44.21;100759.34;5123435;27;20375;-72
2021/06/24 08:33:05;;;;;;;;;;;;;;;28.20;44.51;100762.28;5127093;27;19924;-72
2021/06/24 08:35:50;;;;;;;;;;;;;;;28.27;44.05;100767.72;5127087;27;19915;-72
2021/06/24 08:38:35;;;;;;;;;;;;;;;28.25;44.06;100764.56;5125432;27;20294;-72
2021/06/24 08:41:25;;;;;;;;;;;;;;;28.20;43.89;100762.28;5128938;27;20382;-72
2021/06/24 08:44:09;;;;;;;;;;;;;;;28.21;44.17;100767.44;5127304;27;19915;-73
2021/06/24 08:46:55;;;;;;;;;;;;;;;28.32;44.00;100759.59;5127609;27;19919;-73
2021/06/24 08:49:41;;;;;;;;;;;;;;;28.36;44.13;100762.31;5127749;27;19915;-73
2021/06/24 08:52:26;;;;;;;;;;;;;;;28.29;44.31;100760.47;5126302;27;19915;-73
2021/06/24 08:55:11;;;;;;;;;;;;;;;28.42;44.09;100760.56;5119911;27;20370;-72
2021/06/24 08:57:57;;;;;;;;;;;;;;;28.45;43.71;100762.47;5128073;27;19915;-73
2021/06/24 09:00:42;;;;;;;;;;;;;;;28.44;43.89;100761.69;5125388;27;19916;-72
2021/06/24 09:03:31;;;;;;;;;;;;;;;28.46;44.07;100758.47;5128501;27;19916;-73
2021/06/24 09:06:21;;;;;;;;;;;;;;;28.47;43.59;100763.63;5093866;27;19920;-73
2021/06/24 09:09:06;;;;;;;;;;;;;;;28.45;43.92;100765.28;5123324;27;19924;-72
2021/06/24 09:11:59;;;;;;;;;;;;;;;28.45;43.58;100762.47;5123279;27;19919;-72
2021/06/24 09:14:45;;;;;;;;;;;;;;;28.48;43.22;100762.41;5120659;27;19915;-73
2021/06/24 09:17:40;;;;;;;;;;;;;;;28.51;43.64;100763.53;5120116;27;19915;-73
2021/06/24 09:20:24;;;;;;;;;;;;;;;28.49;43.70;100763.22;5115562;27;19916;-72
2021/06/24 09:23:11;;;;;;;;;;;;;;;28.52;43.22;100759.53;5097637;27;19916;-72
2021/06/24 09:26:07;;;;;;;;;;;;;;;28.50;43.37;100764.75;5126662;27;19994;-72
2021/06/24 09:28:53;;;;;;;;;;;;;;;28.42;43.24;100766.16;5110968;27;19915;-73
2021/06/24 09:31:42;;;;;;;;;;;;;;;28.47;43.32;100763.63;5117468;27;19920;-74
2021/06/24 09:34:26;;;;;;;;;;;;;;;28.32;43.29;100759.59;5123415;27;20184;-74
2021/06/24 09:37:16;;;;;;;;;;;;;;;28.42;42.77;100768.97;5118950;27;20403;-72
2021/06/24 09:40:10;;;;;;;;;;;;;;;28.46;42.68;100770.44;5120905;27;19919;-73
2021/06/24 09:42:55;;;;;;;;;;;;;;;28.51;42.59;100766.34;5121134;27;19915;-73
2021/06/24 09:45:40;;;;;;;;;;;;;;;28.50;42.47;100771.16;5124743;27;20376;-73
2021/06/24 09:48:31;;;;;;;;;;;;;;;28.54;42.71;100768.28;5114305;27;19916;-73
2021/06/24 09:51:15;;;;;;;;;;;;;;;28.56;42.91;100774.22;5122268;27;19916;-74
2021/06/24 09:54:09;;;;;;;;;;;;;;;28.56;42.78;100777.00;5127735;27;19916;-74
2021/06/24 09:56:55;;;;;;;;;;;;;;;28.56;42.34;100784.63;5107815;27;19915;-74
2021/06/24 09:59:40;;;;;;;;;;;;;;;28.59;42.36;100784.56;5128406;27;20375;-74
2021/06/24 10:02:24;;;;;;;;;;;;;;;28.57;42.36;100777.81;5127571;27;19916;-73
2021/06/24 10:05:09;;;;;;;;;;;;;;;28.60;41.31;100772.09;5125942;27;19919;-73
2021/06/24 10:07:54;;;;;;;;;;;;;;;28.64;41.34;100777.63;5108504;27;19916;-73
2021/06/24 10:10:40;;;;;;;;;;;;;;;28.61;40.52;100770.09;5120497;27;19916;-74
2021/06/24 10:13:29;;;;;;;;;;;;;;;28.64;40.41;100763.66;5114821;27;19924;-74
2021/06/24 10:16:17;;;;;;;;;;;;;;;28.58;40.62;100770.97;5117863;27;19916;-74
2021/06/24 10:19:02;;;;;;;;;;;;;;;28.66;40.60;100773.16;5112178;27;19916;-74
2021/06/24 10:21:49;;;;;;;;;;;;;;;28.64;40.49;100775.63;5115823;27;20398;-74
2021/06/24 10:24:40;;;;;;;;;;;;;;;28.71;39.82;100775.44;5108221;27;20306;-73
2021/06/24 10:27:37;;;;;;;;;;;;;;;28.75;39.01;100776.16;5118681;27;19928;-74
2021/06/24 10:30:22;;;;;;;;;;;;;;;28.76;39.01;100777.72;5106868;27;19920;-72
2021/06/24 10:33:11;;;;;;;;;;;;;;;28.85;39.11;100774.34;5116501;27;19915;-74
2021/06/24 10:35:56;;;;;;;;;;;;;;;28.86;38.18;100771.06;5111339;27;19916;-74
2021/06/24 10:38:41;;;;;;;;;;;;;;;28.80;37.68;100764.44;5092956;28;19916;-74
2021/06/24 10:41:26;;;;;;;;;;;;;;;28.87;37.72;100772.66;5101315;27;19919;-73
2021/06/24 10:44:12;;;;;;;;;;;;;;;28.81;37.96;100765.22;5122138;27;20298;-74
2021/06/24 10:47:04;;;;;;;;;;;;;;;28.86;37.39;100765.47;5083554;28;19917;-74
2021/06/24 10:49:49;;;;;;;;;;;;;;;29.05;38.26;100765.81;5100334;27;19920;-72
2021/06/24 10:52:35;;;;;;;;;;;;;;;29.14;38.33;100774.38;5121161;27;19916;-72
2021/06/24 10:55:32;;;;;;;;;;;;;;;29.09;37.44;100772.09;5099553;28;20375;-73
2021/06/24 10:58:20;;;;;;;;;;;;;;;29.13;37.06;100776.38;5108945;27;19916;-74
2021/06/24 11:01:05;;;;;;;;;;;;;;;29.06;37.71;100784.97;5112089;27;19923;-75
2021/06/24 11:03:50;;;;;;;;;;;;;;;29.25;30.25;100770.06;5078976;27;19916;-74
2021/06/24 11:06:38;;;;;;;;;;;;;;;29.50;35.98;100774.22;5115007;27;19916;-73
2021/06/24 11:09:23;;;;;;;;;;;;;;;29.37;35.94;100778.97;5124205;27;19924;-73
2021/06/24 11:12:07;;;;;;;;;;;;;;;29.24;36.30;100781.69;5119441;27;19919;-73
2021/06/24 11:14:56;;;;;;;;;;;;;;;29.32;35.94;100778.28;5123698;27;19916;-74
2021/06/24 11:17:45;;;;;;;;;;;;;;;29.26;36.20;100782.03;5107742;27;19920;-76
2021/06/24 11:20:48;;;;;;;;;;;;;;;29.21;35.48;100776.97;5114454;27;19923;-73
2021/06/24 11:23:37;;;;;;;;;;;;;;;29.25;35.83;100774.88;5114295;28;19916;-74
2021/06/24 11:26:25;;;;;;;;;;;;;;;29.28;35.86;100768.38;5123800;27;19916;-74
2021/06/24 11:29:38;;;;;;;;;;;;;;;29.33;36.33;100770.66;5126480;27;19920;-74
2021/06/24 11:32:31;;;;;;;;;;;;;;;29.33;32.39;100759.47;5105716;27;19916;-73
2021/06/24 11:35:32;;;;;;;;;;;;;;;29.47;35.24;100766.66;5121757;27;19916;-73
2021/06/24 11:38:17;;;;;;;;;;;;;;;29.51;35.38;100759.72;5093989;28;19915;-73
2021/06/24 11:41:03;;;;;;;;;;;;;;;29.47;35.54;100764.66;5097016;28;19924;-74
2021/06/24 11:44:04;;;;;;;;;;;;;;;29.41;35.06;100762.88;5116554;28;20315;-73
2021/06/24 11:46:53;;;;;;;;;;;;;;;29.27;35.64;100761.19;5113070;28;19915;-74
2021/06/24 12:05:24;;;;;;;;;;;;;;;29.23;35.17;100757.72;5113546;28;20295;-73
2021/06/24 12:08:18;;;;;;;;;;;;;;;29.30;35.17;100754.72;5130859;27;19939;-74
2021/06/24 12:11:07;;;;;;;;;;;;;;;29.21;35.38;100751.75;5120352;27;20291;-73
2021/06/24 12:13:52;;;;;;;;;;;;;;;29.28;34.41;100745.97;5114281;27;19915;-73
2021/06/24 12:16:36;;;;;;;;;;;;;;;29.35;34.50;100742.22;5121008;27;19924;-74
2021/06/24 12:19:21;;;;;;;;;;;;;;;29.43;33.47;100735.97;5105476;27;20552;-75
2021/06/24 12:22:06;;;;;;;;;;;;;;;29.54;33.03;100741.25;5125918;27;19923;-74
2021/06/24 12:24:51;;;;;;;;;;;;;;;29.79;30.41;100718.88;5117428;27;20403;-72
2021/06/24 12:27:39;;;;;;;;;;;;;;;29.77;30.75;100735.34;5126333;27;19920;-74
2021/06/24 12:30:29;;;;;;;;;;;;;;;29.72;32.25;100725.47;5117993;27;19916;-75
2021/06/24 12:33:14;;;;;;;;;;;;;;;29.63;32.64;100721.75;5127229;27;19915;-74
2021/06/24 12:35:59;;;;;;;;;;;;;;;29.69;31.88;100715.16;5129763;27;19915;-74
2021/06/24 12:38:44;;;;;;;;;;;;;;;29.74;32.41;100722.22;5113908;27;19916;-75
2021/06/24 12:41:29;;;;;;;;;;;;;;;29.75;32.02;100704.19;5122392;27;19915;-75
2021/06/24 12:44:14;;;;;;;;;;;;;;;29.62;32.08;100709.75;5104733;27;19916;-75
2021/06/24 12:46:59;;;;;;;;;;;;;;;29.66;31.47;100702.03;5106095;27;19915;-75
2021/06/24 12:49:43;;;;;;;;;;;;;;;29.65;32.16;100697.69;5115414;27;19919;-74
2021/06/24 12:52:31;;;;;;;;;;;;;;;29.59;31.96;100696.66;5128836;27;20287;-74
2021/06/24 12:55:37;;;;;;;;;;;;;;;29.59;32.06;100685.44;5105613;27;19916;-75
2021/06/24 12:58:22;;;;;;;;;;;;;;;29.62;31.63;100684.53;5125983;27;19920;-74
2021/06/24 13:01:14;;;;;;;;;;;;;;;29.48;32.04;100686.97;5128529;27;20382;-74
2021/06/24 13:04:08;;;;;;;;;;;;;;;29.45;32.57;100682.28;5124172;27;19915;-73
2021/06/24 13:06:53;;;;;;;;;;;;;;;29.40;32.42;100674.41;5096203;27;19916;-73
2021/06/24 13:09:41;;;;;;;;;;;;;;;29.40;32.71;100680.03;5126179;27;20295;-75
2021/06/24 13:12:25;;;;;;;;;;;;;;;29.41;32.23;100681.59;5126217;27;19916;-74
2021/06/24 13:15:28;;;;;;;;;;;;;;;29.35;32.89;100677.78;5130335;27;19915;-75
2021/06/24 13:18:15;;;;;;;;;;;;;;;29.28;32.20;100675.91;5122115;27;19920;-75
2021/06/24 13:20:59;;;;;;;;;;;;;;;29.19;32.10;100676.59;5122847;27;19916;-75
2021/06/24 13:23:44;;;;;;;;;;;;;;;29.20;32.41;100666.94;5124023;27;19915;-75
2021/06/24 13:26:29;;;;;;;;;;;;;;;29.29;32.21;100669.09;5127251;27;19915;-73
2021/06/24 13:29:18;;;;;;;;;;;;;;;29.30;32.36;100667.88;5106340;27;20374;-73
2021/06/24 13:32:04;;;;;;;;;;;;;;;29.27;31.98;100665.94;5112546;27;19915;-73
2021/06/24 13:34:48;;;;;;;;;;;;;;;29.20;31.20;100658.56;5127161;27;19916;-73
2021/06/24 13:37:32;;;;;;;;;;;;;;;29.30;30.41;100649.06;5120997;27;19916;-71
2021/06/24 13:40:17;;;;;;;;;;;;;;;29.45;29.69;100652.25;5127425;27;19916;-71
2021/06/24 13:43:04;;;;;;;;;;;;;;;29.40;29.87;100658.41;5126327;27;20290;-71
2021/06/24 13:45:49;;;;;;;;;;;;;;;29.25;31.43;100657.22;5122891;27;19920;-71
2021/06/24 13:48:34;;;;;;;;;;;;;;;29.09;33.98;100648.88;5121483;27;19920;-68
2021/06/24 13:51:18;;;;;;;;;;;;;;;29.06;32.93;100641.34;5113254;27;19916;-70
2021/06/24 13:54:07;;;;;;;;;;;;;;;28.99;32.20;100633.16;5111651;27;20283;-69
2021/06/24 13:56:54;;;;;;;;;;;;;;;29.05;31.80;100625.78;5118208;27;19916;-71
2021/06/24 13:59:39;;;;;;;;;;;;;;;29.33;31.16;100624.97;5119918;27;19915;-69
2021/06/24 14:02:24;;;;;;;;;;;;;;;29.29;32.72;100624.28;5130566;27;20492;-70
2021/06/24 14:05:10;;;;;;;;;;;;;;;29.27;32.04;100612.72;5127414;27;19916;-70
2021/06/24 14:07:55;;;;;;;;;;;;;;;29.24;32.11;100608.81;5101615;27;19920;-70
2021/06/24 14:10:40;;;;;;;;;;;;;;;29.84;29.13;100613.78;5116997;27;19915;-71
2021/06/24 14:13:26;;;;;;;;;;;;;;;29.69;31.34;100617.03;5123316;27;19915;-69
2021/06/24 14:16:13;;;;;;;;;;;;;;;29.38;31.90;100610.41;5123057;27;20390;-69
2021/06/24 14:18:58;;;;;;;;;;;;;;;29.19;32.30;100597.34;5108445;27;19919;-70
2021/06/24 14:21:43;;;;;;;;;;;;;;;29.93;30.39;100609.09;5128582;27;19916;-70
2021/06/24 14:24:28;;;;;;;;;;;;;;;30.34;28.26;100608.09;5127542;27;20302;-70
2021/06/24 14:27:13;;;;;;;;;;;;;;;30.54;28.68;100614.25;5121196;27;20303;-70
2021/06/24 14:29:57;;;;;;;;;;;;;;;30.56;29.46;100608.19;5123589;27;19920;-69
2021/06/24 14:32:42;;;;;;;;;;;;;;;30.76;26.81;100607.88;5125906;27;19919;-69
2021/06/24 14:35:26;;;;;;;;;;;;;;;30.83;26.35;100610.44;5109904;27;20302;-69